This is the latest recevied weather packets stored in our database for station/object N1KM-15. If no packets are shown the sender has not sent any weather packets the latest 10 day(s).
| Time | Temp. | Humidity | Pressure | Rain* | Wind** | Luminosity | Snow |
|---|---|---|---|---|---|---|---|
| 1777928400 | 15.56° C | 59% | 1007.6 hPa | 0 mm | - | - | - |
| 1777927500 | 16.11° C | 57% | 1007.6 hPa | 0 mm | - | - | - |
| 1777926600 | 16.11° C | 59% | 1007.5 hPa | 0 mm | - | - | - |
| 1777925700 | 15.56° C | 58% | 1007.6 hPa | 0 mm | - | - | - |
| 1777924800 | 16.11° C | 57% | 1007.3 hPa | 0 mm | - | - | - |
| 1777923900 | 17.78° C | 51% | 1007.1 hPa | 0 mm | - | - | - |
| 1777923000 | 17.78° C | 47% | 1007 hPa | 0 mm | - | - | - |
| 1777922100 | 18.33° C | 46% | 1007 hPa | 0 mm | - | - | - |
| 1777921200 | 18.33° C | 44% | 1007.1 hPa | 0 mm | - | - | - |
| 1777920300 | 18.89° C | 44% | 1006.9 hPa | 0 mm | - | - | - |
| 1777919400 | 18.89° C | 44% | 1007.3 hPa | 0 mm | - | - | - |
| 1777918500 | 18.89° C | 44% | 1007.2 hPa | 0 mm | - | - | - |
| 1777917600 | 18.33° C | 45% | 1007.2 hPa | 0 mm | - | - | - |
| 1777916700 | 18.33° C | 53% | 1007.3 hPa | 0 mm | - | - | - |
| 1777915800 | 20° C | 39% | 1007 hPa | 0 mm | - | - | - |
| 1777914900 | 20° C | 37% | 1007 hPa | 0 mm | - | - | - |
| 1777914000 | 19.44° C | 36% | 1007.3 hPa | 0 mm | - | - | - |
| 1777913100 | 18.89° C | 40% | 1007.7 hPa | 0 mm | - | - | - |
| 1777912200 | 19.44° C | 39% | 1007.5 hPa | 0 mm | - | - | - |
| 1777911300 | 20° C | 36% | 1007.6 hPa | 0 mm | - | - | - |
| 1777910400 | 20° C | 36% | 1007.8 hPa | 0 mm | - | - | - |
| 1777909500 | 19.44° C | 37% | 1007.7 hPa | 0 mm | - | - | - |
| 1777908600 | 19.44° C | 39% | 1007.9 hPa | 0 mm | - | - | - |
| 1777907700 | 19.44° C | 38% | 1007.9 hPa | 0 mm | - | - | - |
| 1777906800 | 19.44° C | 39% | 1008 hPa | 0 mm | - | - | - |
* Rain since midnight (hover to see other rain measurements)
** Current wind speed in m/s (hover to see current wind gust speed)